sensor_id;sensor_type;location;lat;lon;timestamp;P1;durP1;ratioP1;P2;durP2;ratioP2
22024;SDS011;11176;51.448;6.650;2023-05-24T00:01:54;10.65;;;2.90;;
22024;SDS011;11176;51.448;6.650;2023-05-24T00:04:22;14.25;;;3.40;;
22024;SDS011;11176;51.448;6.650;2023-05-24T00:06:50;10.63;;;2.85;;
22024;SDS011;11176;51.448;6.650;2023-05-24T00:09:20;11.73;;;2.90;;
22024;SDS011;11176;51.448;6.650;2023-05-24T00:11:46;11.13;;;3.22;;
22024;SDS011;11176;51.448;6.650;2023-05-24T00:14:13;18.45;;;2.97;;
22024;SDS011;11176;51.448;6.650;2023-05-24T00:16:39;13.27;;;3.03;;
22024;SDS011;11176;51.448;6.650;2023-05-24T00:19:07;13.07;;;3.30;;
22024;SDS011;11176;51.448;6.650;2023-05-24T00:21:36;15.63;;;3.17;;
22024;SDS011;11176;51.448;6.650;2023-05-24T00:24:02;12.95;;;3.30;;
22024;SDS011;11176;51.448;6.650;2023-05-24T00:26:29;11.02;;;2.90;;
22024;SDS011;11176;51.448;6.650;2023-05-24T00:28:56;11.30;;;3.22;;
22024;SDS011;11176;51.448;6.650;2023-05-24T00:31:22;10.85;;;3.50;;
22024;SDS011;11176;51.448;6.650;2023-05-24T00:33:49;16.30;;;3.25;;
22024;SDS011;11176;51.448;6.650;2023-05-24T00:36:17;12.55;;;3.35;;
22024;SDS011;11176;51.448;6.650;2023-05-24T00:38:46;11.30;;;3.60;;
22024;SDS011;11176;51.448;6.650;2023-05-24T00:41:14;12.02;;;3.13;;
22024;SDS011;11176;51.448;6.650;2023-05-24T00:43:41;11.30;;;3.20;;
22024;SDS011;11176;51.448;6.650;2023-05-24T00:46:17;13.35;;;3.20;;
22024;SDS011;11176;51.448;6.650;2023-05-24T00:48:48;15.50;;;3.40;;
22024;SDS011;11176;51.448;6.650;2023-05-24T00:51:16;16.60;;;3.17;;
22024;SDS011;11176;51.448;6.650;2023-05-24T00:53:44;14.80;;;2.92;;
22024;SDS011;11176;51.448;6.650;2023-05-24T00:56:13;13.98;;;3.28;;
22024;SDS011;11176;51.448;6.650;2023-05-24T00:58:41;12.98;;;3.42;;
22024;SDS011;11176;51.448;6.650;2023-05-24T01:01:08;14.93;;;3.30;;
22024;SDS011;11176;51.448;6.650;2023-05-24T01:03:36;14.55;;;3.40;;
22024;SDS011;11176;51.448;6.650;2023-05-24T01:06:03;13.23;;;3.80;;
22024;SDS011;11176;51.448;6.650;2023-05-24T01:11:09;10.30;;;3.22;;
22024;SDS011;11176;51.448;6.650;2023-05-24T01:14:03;16.40;;;3.40;;
22024;SDS011;11176;51.448;6.650;2023-05-24T01:16:55;14.50;;;4.05;;
22024;SDS011;11176;51.448;6.650;2023-05-24T01:28:11;24.27;;;8.27;;
22024;SDS011;11176;51.448;6.650;2023-05-24T01:30:39;20.85;;;7.72;;
22024;SDS011;11176;51.448;6.650;2023-05-24T01:33:07;19.58;;;8.60;;
22024;SDS011;11176;51.448;6.650;2023-05-24T01:35:34;20.50;;;8.57;;
22024;SDS011;11176;51.448;6.650;2023-05-24T01:38:05;18.27;;;7.82;;
22024;SDS011;11176;51.448;6.650;2023-05-24T01:40:33;17.52;;;8.38;;
22024;SDS011;11176;51.448;6.650;2023-05-24T01:43:06;19.95;;;8.32;;
22024;SDS011;11176;51.448;6.650;2023-05-24T01:45:39;19.05;;;8.18;;
22024;SDS011;11176;51.448;6.650;2023-05-24T01:48:52;21.23;;;8.07;;
22024;SDS011;11176;51.448;6.650;2023-05-24T01:51:52;16.17;;;7.32;;
22024;SDS011;11176;51.448;6.650;2023-05-24T01:54:23;17.27;;;7.88;;
22024;SDS011;11176;51.448;6.650;2023-05-24T01:56:51;18.13;;;8.35;;
22024;SDS011;11176;51.448;6.650;2023-05-24T01:59:21;22.27;;;8.05;;
22024;SDS011;11176;51.448;6.650;2023-05-24T02:01:49;21.92;;;8.23;;
22024;SDS011;11176;51.448;6.650;2023-05-24T02:04:16;19.85;;;7.43;;
22024;SDS011;11176;51.448;6.650;2023-05-24T02:06:43;14.88;;;6.80;;
22024;SDS011;11176;51.448;6.650;2023-05-24T02:09:10;20.90;;;6.97;;
22024;SDS011;11176;51.448;6.650;2023-05-24T02:11:36;16.77;;;5.93;;
22024;SDS011;11176;51.448;6.650;2023-05-24T02:14:03;14.18;;;5.43;;
22024;SDS011;11176;51.448;6.650;2023-05-24T02:16:29;15.27;;;5.50;;
22024;SDS011;11176;51.448;6.650;2023-05-24T02:18:56;17.13;;;5.80;;
22024;SDS011;11176;51.448;6.650;2023-05-24T02:21:23;18.92;;;5.70;;
22024;SDS011;11176;51.448;6.650;2023-05-24T02:23:51;16.55;;;5.95;;
22024;SDS011;11176;51.448;6.650;2023-05-24T02:26:17;12.82;;;6.35;;
22024;SDS011;11176;51.448;6.650;2023-05-24T02:28:44;22.48;;;7.15;;
22024;SDS011;11176;51.448;6.650;2023-05-24T02:31:10;20.00;;;6.75;;
22024;SDS011;11176;51.448;6.650;2023-05-24T02:33:37;13.35;;;6.22;;
22024;SDS011;11176;51.448;6.650;2023-05-24T02:36:03;14.45;;;6.20;;
22024;SDS011;11176;51.448;6.650;2023-05-24T02:38:30;21.92;;;6.45;;
22024;SDS011;11176;51.448;6.650;2023-05-24T02:40:57;20.38;;;6.38;;
22024;SDS011;11176;51.448;6.650;2023-05-24T02:43:23;20.58;;;6.40;;
22024;SDS011;11176;51.448;6.650;2023-05-24T02:45:50;18.30;;;6.53;;
22024;SDS011;11176;51.448;6.650;2023-05-24T02:48:16;18.75;;;6.43;;
22024;SDS011;11176;51.448;6.650;2023-05-24T02:50:43;18.23;;;7.07;;
22024;SDS011;11176;51.448;6.650;2023-05-24T02:53:10;19.80;;;7.78;;
22024;SDS011;11176;51.448;6.650;2023-05-24T02:55:37;17.65;;;7.18;;
22024;SDS011;11176;51.448;6.650;2023-05-24T02:58:03;19.38;;;6.85;;
22024;SDS011;11176;51.448;6.650;2023-05-24T03:00:31;21.58;;;7.43;;
22024;SDS011;11176;51.448;6.650;2023-05-24T03:02:58;14.93;;;6.22;;
22024;SDS011;11176;51.448;6.650;2023-05-24T03:05:28;17.55;;;6.05;;
22024;SDS011;11176;51.448;6.650;2023-05-24T03:07:55;17.40;;;6.03;;
22024;SDS011;11176;51.448;6.650;2023-05-24T03:10:21;14.70;;;5.47;;
22024;SDS011;11176;51.448;6.650;2023-05-24T03:12:49;16.58;;;4.75;;
22024;SDS011;11176;51.448;6.650;2023-05-24T03:15:15;12.35;;;4.53;;
22024;SDS011;11176;51.448;6.650;2023-05-24T03:17:42;15.00;;;4.43;;
22024;SDS011;11176;51.448;6.650;2023-05-24T03:20:08;18.08;;;4.93;;
22024;SDS011;11176;51.448;6.650;2023-05-24T03:22:36;11.05;;;4.10;;
22024;SDS011;11176;51.448;6.650;2023-05-24T03:25:03;15.70;;;4.40;;
22024;SDS011;11176;51.448;6.650;2023-05-24T03:27:30;12.80;;;4.72;;
22024;SDS011;11176;51.448;6.650;2023-05-24T03:29:57;21.77;;;4.82;;
22024;SDS011;11176;51.448;6.650;2023-05-24T03:32:28;17.20;;;4.53;;
22024;SDS011;11176;51.448;6.650;2023-05-24T03:34:54;14.70;;;4.60;;
22024;SDS011;11176;51.448;6.650;2023-05-24T03:37:23;10.80;;;4.07;;
22024;SDS011;11176;51.448;6.650;2023-05-24T03:39:51;15.15;;;4.45;;
22024;SDS011;11176;51.448;6.650;2023-05-24T03:42:47;17.73;;;4.40;;
22024;SDS011;11176;51.448;6.650;2023-05-24T03:45:14;14.90;;;4.60;;
22024;SDS011;11176;51.448;6.650;2023-05-24T03:47:49;18.27;;;4.88;;
22024;SDS011;11176;51.448;6.650;2023-05-24T03:50:17;14.88;;;4.60;;
22024;SDS011;11176;51.448;6.650;2023-05-24T03:52:43;18.92;;;4.40;;
22024;SDS011;11176;51.448;6.650;2023-05-24T03:55:10;14.27;;;4.32;;
22024;SDS011;11176;51.448;6.650;2023-05-24T03:57:37;14.15;;;3.80;;
22024;SDS011;11176;51.448;6.650;2023-05-24T04:00:03;14.68;;;4.95;;
22024;SDS011;11176;51.448;6.650;2023-05-24T04:02:39;18.52;;;5.22;;
22024;SDS011;11176;51.448;6.650;2023-05-24T04:05:06;19.42;;;4.78;;
22024;SDS011;11176;51.448;6.650;2023-05-24T04:07:36;13.70;;;5.25;;
22024;SDS011;11176;51.448;6.650;2023-05-24T04:10:04;17.50;;;5.50;;
22024;SDS011;11176;51.448;6.650;2023-05-24T04:12:31;18.77;;;5.57;;
22024;SDS011;11176;51.448;6.650;2023-05-24T04:14:58;14.77;;;4.85;;
22024;SDS011;11176;51.448;6.650;2023-05-24T04:17:26;12.63;;;5.05;;
22024;SDS011;11176;51.448;6.650;2023-05-24T04:19:55;21.27;;;5.63;;
22024;SDS011;11176;51.448;6.650;2023-05-24T04:22:22;13.45;;;5.10;;
22024;SDS011;11176;51.448;6.650;2023-05-24T04:24:51;20.52;;;6.28;;
22024;SDS011;11176;51.448;6.650;2023-05-24T04:27:17;16.20;;;5.10;;
22024;SDS011;11176;51.448;6.650;2023-05-24T04:29:44;21.10;;;5.88;;
22024;SDS011;11176;51.448;6.650;2023-05-24T04:32:15;14.15;;;4.88;;
22024;SDS011;11176;51.448;6.650;2023-05-24T04:34:43;18.75;;;5.38;;
22024;SDS011;11176;51.448;6.650;2023-05-24T04:37:11;19.67;;;5.82;;
22024;SDS011;11176;51.448;6.650;2023-05-24T04:39:39;17.42;;;5.70;;
22024;SDS011;11176;51.448;6.650;2023-05-24T04:42:06;16.95;;;5.38;;
22024;SDS011;11176;51.448;6.650;2023-05-24T04:44:32;14.70;;;4.75;;
22024;SDS011;11176;51.448;6.650;2023-05-24T04:46:59;14.73;;;5.25;;
22024;SDS011;11176;51.448;6.650;2023-05-24T04:49:28;16.63;;;5.40;;
22024;SDS011;11176;51.448;6.650;2023-05-24T04:51:55;17.95;;;5.25;;
22024;SDS011;11176;51.448;6.650;2023-05-24T04:54:22;16.80;;;5.72;;
22024;SDS011;11176;51.448;6.650;2023-05-24T04:56:49;15.95;;;5.10;;
22024;SDS011;11176;51.448;6.650;2023-05-24T04:59:15;18.33;;;5.63;;
22024;SDS011;11176;51.448;6.650;2023-05-24T05:01:42;21.48;;;5.40;;
22024;SDS011;11176;51.448;6.650;2023-05-24T05:04:08;14.55;;;5.15;;
22024;SDS011;11176;51.448;6.650;2023-05-24T05:06:35;14.45;;;4.85;;
22024;SDS011;11176;51.448;6.650;2023-05-24T05:09:05;14.63;;;4.97;;
22024;SDS011;11176;51.448;6.650;2023-05-24T05:11:35;16.80;;;5.32;;
22024;SDS011;11176;51.448;6.650;2023-05-24T05:14:02;21.92;;;5.18;;
22024;SDS011;11176;51.448;6.650;2023-05-24T05:16:29;19.17;;;5.22;;
22024;SDS011;11176;51.448;6.650;2023-05-24T05:18:56;18.17;;;5.22;;
22024;SDS011;11176;51.448;6.650;2023-05-24T05:21:23;23.92;;;5.15;;
22024;SDS011;11176;51.448;6.650;2023-05-24T05:23:50;14.90;;;4.90;;
22024;SDS011;11176;51.448;6.650;2023-05-24T05:26:16;20.88;;;5.28;;
22024;SDS011;11176;51.448;6.650;2023-05-24T05:28:43;15.32;;;4.82;;
22024;SDS011;11176;51.448;6.650;2023-05-24T05:31:09;17.15;;;5.25;;
22024;SDS011;11176;51.448;6.650;2023-05-24T05:33:36;18.75;;;5.78;;
22024;SDS011;11176;51.448;6.650;2023-05-24T05:36:02;13.02;;;3.90;;
22024;SDS011;11176;51.448;6.650;2023-05-24T05:38:29;13.98;;;4.25;;
22024;SDS011;11176;51.448;6.650;2023-05-24T05:40:55;16.33;;;4.90;;
22024;SDS011;11176;51.448;6.650;2023-05-24T05:43:22;17.70;;;5.05;;
22024;SDS011;11176;51.448;6.650;2023-05-24T05:45:50;17.40;;;4.85;;
22024;SDS011;11176;51.448;6.650;2023-05-24T05:48:16;19.05;;;4.70;;
22024;SDS011;11176;51.448;6.650;2023-05-24T05:50:43;13.02;;;4.97;;
22024;SDS011;11176;51.448;6.650;2023-05-24T05:53:09;18.90;;;4.85;;
22024;SDS011;11176;51.448;6.650;2023-05-24T05:55:36;18.92;;;5.20;;
22024;SDS011;11176;51.448;6.650;2023-05-24T05:58:02;14.57;;;5.00;;
22024;SDS011;11176;51.448;6.650;2023-05-24T06:00:29;20.85;;;5.70;;
22024;SDS011;11176;51.448;6.650;2023-05-24T06:02:55;21.00;;;5.18;;
22024;SDS011;11176;51.448;6.650;2023-05-24T06:05:22;15.52;;;4.93;;
22024;SDS011;11176;51.448;6.650;2023-05-24T06:07:48;11.10;;;4.07;;
22024;SDS011;11176;51.448;6.650;2023-05-24T06:10:15;16.70;;;4.72;;
22024;SDS011;11176;51.448;6.650;2023-05-24T06:12:43;14.48;;;5.30;;
22024;SDS011;11176;51.448;6.650;2023-05-24T06:15:10;14.45;;;4.63;;
22024;SDS011;11176;51.448;6.650;2023-05-24T06:17:37;16.08;;;5.18;;
22024;SDS011;11176;51.448;6.650;2023-05-24T06:20:03;15.30;;;4.55;;
22024;SDS011;11176;51.448;6.650;2023-05-24T06:22:40;17.23;;;5.18;;
22024;SDS011;11176;51.448;6.650;2023-05-24T06:25:08;17.90;;;5.22;;
22024;SDS011;11176;51.448;6.650;2023-05-24T06:27:34;16.80;;;5.43;;
22024;SDS011;11176;51.448;6.650;2023-05-24T06:30:01;16.10;;;5.55;;
22024;SDS011;11176;51.448;6.650;2023-05-24T06:32:27;18.10;;;6.05;;
22024;SDS011;11176;51.448;6.650;2023-05-24T06:34:54;16.65;;;5.38;;
22024;SDS011;11176;51.448;6.650;2023-05-24T06:37:20;28.10;;;6.82;;
22024;SDS011;11176;51.448;6.650;2023-05-24T06:39:50;19.63;;;5.97;;
22024;SDS011;11176;51.448;6.650;2023-05-24T06:42:16;20.45;;;5.47;;
22024;SDS011;11176;51.448;6.650;2023-05-24T06:44:44;16.25;;;5.75;;
22024;SDS011;11176;51.448;6.650;2023-05-24T06:47:11;19.98;;;5.53;;
22024;SDS011;11176;51.448;6.650;2023-05-24T06:49:37;16.40;;;4.82;;
22024;SDS011;11176;51.448;6.650;2023-05-24T06:52:04;15.77;;;5.25;;
22024;SDS011;11176;51.448;6.650;2023-05-24T06:54:33;19.27;;;5.32;;
22024;SDS011;11176;51.448;6.650;2023-05-24T06:57:00;15.82;;;5.18;;
22024;SDS011;11176;51.448;6.650;2023-05-24T06:59:28;23.58;;;5.88;;
22024;SDS011;11176;51.448;6.650;2023-05-24T07:01:55;17.67;;;5.20;;
22024;SDS011;11176;51.448;6.650;2023-05-24T07:04:25;17.75;;;5.35;;
22024;SDS011;11176;51.448;6.650;2023-05-24T07:06:52;22.58;;;5.82;;
22024;SDS011;11176;51.448;6.650;2023-05-24T07:09:18;18.95;;;5.50;;
22024;SDS011;11176;51.448;6.650;2023-05-24T07:11:45;16.42;;;4.82;;
22024;SDS011;11176;51.448;6.650;2023-05-24T07:14:12;18.02;;;5.75;;
22024;SDS011;11176;51.448;6.650;2023-05-24T07:16:39;19.85;;;6.55;;
22024;SDS011;11176;51.448;6.650;2023-05-24T07:19:05;24.15;;;6.00;;
22024;SDS011;11176;51.448;6.650;2023-05-24T07:21:32;25.70;;;5.63;;
22024;SDS011;11176;51.448;6.650;2023-05-24T07:23:59;20.02;;;5.55;;
22024;SDS011;11176;51.448;6.650;2023-05-24T07:26:25;17.35;;;5.15;;
22024;SDS011;11176;51.448;6.650;2023-05-24T07:28:51;18.75;;;5.45;;
22024;SDS011;11176;51.448;6.650;2023-05-24T07:31:18;19.73;;;5.50;;
22024;SDS011;11176;51.448;6.650;2023-05-24T07:33:44;16.33;;;5.10;;
22024;SDS011;11176;51.448;6.650;2023-05-24T07:36:11;18.65;;;5.10;;
22024;SDS011;11176;51.448;6.650;2023-05-24T07:38:38;17.08;;;4.53;;
22024;SDS011;11176;51.448;6.650;2023-05-24T07:41:05;18.73;;;4.80;;
22024;SDS011;11176;51.448;6.650;2023-05-24T07:43:32;21.63;;;5.05;;
22024;SDS011;11176;51.448;6.650;2023-05-24T07:45:58;30.38;;;6.05;;
22024;SDS011;11176;51.448;6.650;2023-05-24T07:48:25;19.00;;;5.03;;
22024;SDS011;11176;51.448;6.650;2023-05-24T07:50:51;16.13;;;4.63;;
22024;SDS011;11176;51.448;6.650;2023-05-24T07:53:18;19.85;;;5.85;;
22024;SDS011;11176;51.448;6.650;2023-05-24T07:55:45;20.83;;;5.57;;
22024;SDS011;11176;51.448;6.650;2023-05-24T07:58:11;17.75;;;5.18;;
22024;SDS011;11176;51.448;6.650;2023-05-24T08:00:38;16.98;;;4.65;;
22024;SDS011;11176;51.448;6.650;2023-05-24T08:03:04;15.27;;;4.63;;
22024;SDS011;11176;51.448;6.650;2023-05-24T08:05:31;18.75;;;5.18;;
22024;SDS011;11176;51.448;6.650;2023-05-24T08:07:58;16.30;;;3.92;;
22024;SDS011;11176;51.448;6.650;2023-05-24T08:10:25;17.27;;;4.15;;
22024;SDS011;11176;51.448;6.650;2023-05-24T08:12:51;12.85;;;3.95;;
22024;SDS011;11176;51.448;6.650;2023-05-24T08:15:20;15.82;;;3.70;;
22024;SDS011;11176;51.448;6.650;2023-05-24T08:17:47;12.60;;;4.00;;
22024;SDS011;11176;51.448;6.650;2023-05-24T08:20:14;11.98;;;3.58;;
22024;SDS011;11176;51.448;6.650;2023-05-24T08:22:41;13.60;;;4.15;;
22024;SDS011;11176;51.448;6.650;2023-05-24T08:25:08;15.07;;;4.38;;
22024;SDS011;11176;51.448;6.650;2023-05-24T08:27:36;13.63;;;4.18;;
22024;SDS011;11176;51.448;6.650;2023-05-24T08:30:03;13.43;;;4.35;;
22024;SDS011;11176;51.448;6.650;2023-05-24T08:32:30;14.85;;;4.00;;
22024;SDS011;11176;51.448;6.650;2023-05-24T08:34:57;23.17;;;4.68;;
22024;SDS011;11176;51.448;6.650;2023-05-24T08:37:44;12.48;;;3.60;;
22024;SDS011;11176;51.448;6.650;2023-05-24T08:40:11;12.18;;;3.63;;
22024;SDS011;11176;51.448;6.650;2023-05-24T08:42:38;14.75;;;3.88;;
22024;SDS011;11176;51.448;6.650;2023-05-24T08:45:12;15.95;;;4.53;;
22024;SDS011;11176;51.448;6.650;2023-05-24T08:47:40;13.07;;;4.25;;
22024;SDS011;11176;51.448;6.650;2023-05-24T08:50:08;15.52;;;4.50;;
22024;SDS011;11176;51.448;6.650;2023-05-24T08:52:35;19.00;;;4.63;;
22024;SDS011;11176;51.448;6.650;2023-05-24T08:55:05;13.95;;;3.80;;
22024;SDS011;11176;51.448;6.650;2023-05-24T08:57:32;15.73;;;4.15;;
22024;SDS011;11176;51.448;6.650;2023-05-24T09:00:00;14.73;;;3.92;;
22024;SDS011;11176;51.448;6.650;2023-05-24T09:02:27;12.98;;;3.58;;
22024;SDS011;11176;51.448;6.650;2023-05-24T09:04:55;12.90;;;3.88;;
22024;SDS011;11176;51.448;6.650;2023-05-24T09:07:22;11.40;;;3.47;;
22024;SDS011;11176;51.448;6.650;2023-05-24T09:09:52;12.00;;;3.30;;
22024;SDS011;11176;51.448;6.650;2023-05-24T09:12:32;11.80;;;3.50;;
22024;SDS011;11176;51.448;6.650;2023-05-24T09:15:04;12.20;;;3.42;;
22024;SDS011;11176;51.448;6.650;2023-05-24T09:17:35;12.27;;;3.90;;
22024;SDS011;11176;51.448;6.650;2023-05-24T09:20:04;9.30;;;3.35;;
22024;SDS011;11176;51.448;6.650;2023-05-24T09:25:07;13.00;;;3.60;;
22024;SDS011;11176;51.448;6.650;2023-05-24T09:27:35;15.43;;;4.40;;
22024;SDS011;11176;51.448;6.650;2023-05-24T09:30:03;13.30;;;3.92;;
22024;SDS011;11176;51.448;6.650;2023-05-24T09:32:35;12.45;;;3.72;;
22024;SDS011;11176;51.448;6.650;2023-05-24T09:35:01;12.45;;;3.67;;
22024;SDS011;11176;51.448;6.650;2023-05-24T09:37:28;13.15;;;3.72;;
22024;SDS011;11176;51.448;6.650;2023-05-24T09:39:58;10.23;;;3.17;;
22024;SDS011;11176;51.448;6.650;2023-05-24T09:42:25;9.07;;;3.17;;
22024;SDS011;11176;51.448;6.650;2023-05-24T09:45:05;10.90;;;3.08;;
22024;SDS011;11176;51.448;6.650;2023-05-24T09:50:13;7.72;;;2.67;;
22024;SDS011;11176;51.448;6.650;2023-05-24T09:52:43;11.13;;;3.33;;
22024;SDS011;11176;51.448;6.650;2023-05-24T09:55:13;7.88;;;2.88;;
22024;SDS011;11176;51.448;6.650;2023-05-24T09:57:48;8.13;;;3.30;;
22024;SDS011;11176;51.448;6.650;2023-05-24T10:00:21;9.00;;;3.20;;
22024;SDS011;11176;51.448;6.650;2023-05-24T10:03:04;10.05;;;3.03;;
22024;SDS011;11176;51.448;6.650;2023-05-24T10:05:43;10.35;;;3.03;;
22024;SDS011;11176;51.448;6.650;2023-05-24T10:08:11;11.68;;;3.28;;
22024;SDS011;11176;51.448;6.650;2023-05-24T10:10:39;15.05;;;3.90;;
22024;SDS011;11176;51.448;6.650;2023-05-24T10:13:07;10.00;;;3.40;;
22024;SDS011;11176;51.448;6.650;2023-05-24T10:15:35;14.95;;;3.78;;
22024;SDS011;11176;51.448;6.650;2023-05-24T10:18:01;8.70;;;3.03;;
22024;SDS011;11176;51.448;6.650;2023-05-24T10:20:37;9.48;;;3.22;;
22024;SDS011;11176;51.448;6.650;2023-05-24T10:23:06;9.40;;;2.95;;
22024;SDS011;11176;51.448;6.650;2023-05-24T10:25:36;12.45;;;3.38;;
22024;SDS011;11176;51.448;6.650;2023-05-24T10:28:07;10.38;;;3.15;;
22024;SDS011;11176;51.448;6.650;2023-05-24T10:30:41;12.40;;;3.35;;
22024;SDS011;11176;51.448;6.650;2023-05-24T10:33:16;11.63;;;3.40;;
22024;SDS011;11176;51.448;6.650;2023-05-24T10:35:44;11.73;;;3.83;;
22024;SDS011;11176;51.448;6.650;2023-05-24T10:38:11;12.20;;;3.30;;
22024;SDS011;11176;51.448;6.650;2023-05-24T10:40:41;8.70;;;2.97;;
22024;SDS011;11176;51.448;6.650;2023-05-24T10:43:08;10.18;;;3.10;;
22024;SDS011;11176;51.448;6.650;2023-05-24T10:45:37;8.48;;;2.85;;
22024;SDS011;11176;51.448;6.650;2023-05-24T10:50:39;11.00;;;3.72;;
22024;SDS011;11176;51.448;6.650;2023-05-24T10:55:50;10.05;;;3.33;;
22024;SDS011;11176;51.448;6.650;2023-05-24T10:58:22;11.10;;;2.95;;
22024;SDS011;11176;51.448;6.650;2023-05-24T11:01:26;9.37;;;3.10;;
22024;SDS011;11176;51.448;6.650;2023-05-24T11:04:07;15.15;;;3.42;;
22024;SDS011;11176;51.448;6.650;2023-05-24T11:06:47;14.43;;;3.25;;
22024;SDS011;11176;51.448;6.650;2023-05-24T11:09:21;9.55;;;2.97;;
22024;SDS011;11176;51.448;6.650;2023-05-24T11:11:48;10.60;;;2.85;;
22024;SDS011;11176;51.448;6.650;2023-05-24T11:14:21;7.93;;;2.80;;
22024;SDS011;11176;51.448;6.650;2023-05-24T11:16:50;8.60;;;3.03;;
22024;SDS011;11176;51.448;6.650;2023-05-24T11:19:18;8.60;;;2.92;;
22024;SDS011;11176;51.448;6.650;2023-05-24T11:21:46;11.27;;;3.28;;
22024;SDS011;11176;51.448;6.650;2023-05-24T11:24:16;9.23;;;3.00;;
22024;SDS011;11176;51.448;6.650;2023-05-24T11:26:44;9.20;;;2.63;;
22024;SDS011;11176;51.448;6.650;2023-05-24T11:29:14;7.82;;;2.55;;
22024;SDS011;11176;51.448;6.650;2023-05-24T11:34:19;7.50;;;2.58;;
22024;SDS011;11176;51.448;6.650;2023-05-24T11:36:46;10.35;;;2.67;;
22024;SDS011;11176;51.448;6.650;2023-05-24T11:39:14;11.30;;;2.92;;
22024;SDS011;11176;51.448;6.650;2023-05-24T11:41:41;11.68;;;3.13;;
22024;SDS011;11176;51.448;6.650;2023-05-24T11:44:09;11.73;;;3.00;;
22024;SDS011;11176;51.448;6.650;2023-05-24T11:46:37;7.63;;;2.65;;
22024;SDS011;11176;51.448;6.650;2023-05-24T11:49:05;7.70;;;2.60;;
22024;SDS011;11176;51.448;6.650;2023-05-24T11:51:33;9.15;;;3.10;;
22024;SDS011;11176;51.448;6.650;2023-05-24T11:54:00;8.85;;;2.78;;
22024;SDS011;11176;51.448;6.650;2023-05-24T11:56:30;6.95;;;2.28;;
22024;SDS011;11176;51.448;6.650;2023-05-24T11:59:08;11.15;;;2.88;;
22024;SDS011;11176;51.448;6.650;2023-05-24T12:01:39;9.18;;;2.53;;
22024;SDS011;11176;51.448;6.650;2023-05-24T12:04:06;9.95;;;2.92;;
22024;SDS011;11176;51.448;6.650;2023-05-24T12:06:38;7.25;;;2.60;;
22024;SDS011;11176;51.448;6.650;2023-05-24T12:09:07;7.60;;;2.70;;
22024;SDS011;11176;51.448;6.650;2023-05-24T12:11:42;8.05;;;2.88;;
22024;SDS011;11176;51.448;6.650;2023-05-24T12:14:12;11.15;;;3.38;;
22024;SDS011;11176;51.448;6.650;2023-05-24T12:16:41;8.93;;;2.63;;
22024;SDS011;11176;51.448;6.650;2023-05-24T12:19:12;12.88;;;3.00;;
22024;SDS011;11176;51.448;6.650;2023-05-24T12:21:58;9.23;;;3.03;;
22024;SDS011;11176;51.448;6.650;2023-05-24T12:24:26;11.18;;;3.22;;
22024;SDS011;11176;51.448;6.650;2023-05-24T12:26:57;11.88;;;3.33;;
22024;SDS011;11176;51.448;6.650;2023-05-24T12:29:35;8.98;;;2.70;;
22024;SDS011;11176;51.448;6.650;2023-05-24T12:32:03;8.75;;;2.95;;
22024;SDS011;11176;51.448;6.650;2023-05-24T12:34:31;7.75;;;2.70;;
22024;SDS011;11176;51.448;6.650;2023-05-24T12:36:58;9.38;;;2.72;;
22024;SDS011;11176;51.448;6.650;2023-05-24T12:39:26;12.25;;;3.22;;
22024;SDS011;11176;51.448;6.650;2023-05-24T12:41:57;9.65;;;3.03;;
22024;SDS011;11176;51.448;6.650;2023-05-24T12:44:27;7.30;;;2.65;;
22024;SDS011;11176;51.448;6.650;2023-05-24T12:46:54;7.50;;;2.60;;
22024;SDS011;11176;51.448;6.650;2023-05-24T12:49:23;12.23;;;3.13;;
22024;SDS011;11176;51.448;6.650;2023-05-24T12:51:51;8.27;;;2.92;;
22024;SDS011;11176;51.448;6.650;2023-05-24T12:54:21;8.27;;;2.72;;
22024;SDS011;11176;51.448;6.650;2023-05-24T12:56:49;7.80;;;2.42;;
22024;SDS011;11176;51.448;6.650;2023-05-24T12:59:20;10.75;;;2.88;;
22024;SDS011;11176;51.448;6.650;2023-05-24T13:01:47;10.45;;;3.03;;
22024;SDS011;11176;51.448;6.650;2023-05-24T13:04:18;10.55;;;3.15;;
22024;SDS011;11176;51.448;6.650;2023-05-24T13:06:46;8.77;;;2.45;;
22024;SDS011;11176;51.448;6.650;2023-05-24T13:09:13;9.23;;;2.88;;
22024;SDS011;11176;51.448;6.650;2023-05-24T13:11:43;8.63;;;2.65;;
22024;SDS011;11176;51.448;6.650;2023-05-24T13:14:09;8.75;;;2.70;;
22024;SDS011;11176;51.448;6.650;2023-05-24T13:16:37;7.95;;;2.60;;
22024;SDS011;11176;51.448;6.650;2023-05-24T13:19:03;10.77;;;3.15;;
22024;SDS011;11176;51.448;6.650;2023-05-24T13:21:30;10.75;;;2.75;;
22024;SDS011;11176;51.448;6.650;2023-05-24T13:23:56;10.82;;;2.83;;
22024;SDS011;11176;51.448;6.650;2023-05-24T13:26:23;11.48;;;3.10;;
22024;SDS011;11176;51.448;6.650;2023-05-24T13:28:49;8.45;;;2.75;;
22024;SDS011;11176;51.448;6.650;2023-05-24T13:31:36;7.47;;;2.72;;
22024;SDS011;11176;51.448;6.650;2023-05-24T13:34:04;6.40;;;2.60;;
22024;SDS011;11176;51.448;6.650;2023-05-24T13:36:31;7.13;;;2.58;;
22024;SDS011;11176;51.448;6.650;2023-05-24T13:38:58;11.00;;;3.03;;
22024;SDS011;11176;51.448;6.650;2023-05-24T13:41:39;9.98;;;2.90;;
22024;SDS011;11176;51.448;6.650;2023-05-24T13:44:06;8.95;;;2.83;;
22024;SDS011;11176;51.448;6.650;2023-05-24T13:46:33;8.30;;;3.33;;
22024;SDS011;11176;51.448;6.650;2023-05-24T13:49:01;8.20;;;2.47;;
22024;SDS011;11176;51.448;6.650;2023-05-24T13:51:28;9.77;;;3.33;;
22024;SDS011;11176;51.448;6.650;2023-05-24T13:53:56;8.38;;;2.78;;
22024;SDS011;11176;51.448;6.650;2023-05-24T13:56:22;10.20;;;3.08;;
22024;SDS011;11176;51.448;6.650;2023-05-24T13:58:50;6.53;;;2.85;;
22024;SDS011;11176;51.448;6.650;2023-05-24T14:01:17;7.30;;;2.65;;
22024;SDS011;11176;51.448;6.650;2023-05-24T14:03:43;7.90;;;2.72;;
22024;SDS011;11176;51.448;6.650;2023-05-24T14:06:10;9.15;;;3.22;;
22024;SDS011;11176;51.448;6.650;2023-05-24T14:08:37;7.45;;;2.92;;
22024;SDS011;11176;51.448;6.650;2023-05-24T14:11:04;17.20;;;4.97;;
22024;SDS011;11176;51.448;6.650;2023-05-24T14:13:30;31.85;;;12.52;;
22024;SDS011;11176;51.448;6.650;2023-05-24T14:16:17;15.55;;;5.45;;
22024;SDS011;11176;51.448;6.650;2023-05-24T14:18:45;16.30;;;5.35;;
22024;SDS011;11176;51.448;6.650;2023-05-24T14:21:13;14.15;;;5.32;;
22024;SDS011;11176;51.448;6.650;2023-05-24T14:23:40;11.80;;;3.75;;
22024;SDS011;11176;51.448;6.650;2023-05-24T14:26:07;7.88;;;2.78;;
22024;SDS011;11176;51.448;6.650;2023-05-24T14:28:33;9.30;;;3.03;;
22024;SDS011;11176;51.448;6.650;2023-05-24T14:31:00;10.50;;;3.15;;
22024;SDS011;11176;51.448;6.650;2023-05-24T14:33:27;6.45;;;2.78;;
22024;SDS011;11176;51.448;6.650;2023-05-24T14:35:53;10.48;;;3.13;;
22024;SDS011;11176;51.448;6.650;2023-05-24T14:38:20;8.57;;;2.72;;
22024;SDS011;11176;51.448;6.650;2023-05-24T14:40:49;7.20;;;2.80;;
22024;SDS011;11176;51.448;6.650;2023-05-24T14:43:16;6.63;;;2.50;;
22024;SDS011;11176;51.448;6.650;2023-05-24T14:45:43;10.95;;;3.05;;
22024;SDS011;11176;51.448;6.650;2023-05-24T14:48:11;11.65;;;3.40;;
22024;SDS011;11176;51.448;6.650;2023-05-24T14:50:39;9.00;;;3.05;;
22024;SDS011;11176;51.448;6.650;2023-05-24T14:53:05;10.57;;;2.83;;
22024;SDS011;11176;51.448;6.650;2023-05-24T14:55:36;8.77;;;3.25;;
22024;SDS011;11176;51.448;6.650;2023-05-24T14:58:04;7.35;;;2.65;;
22024;SDS011;11176;51.448;6.650;2023-05-24T15:00:34;8.00;;;2.85;;
22024;SDS011;11176;51.448;6.650;2023-05-24T15:03:01;7.78;;;2.70;;
22024;SDS011;11176;51.448;6.650;2023-05-24T15:05:28;8.35;;;2.60;;
22024;SDS011;11176;51.448;6.650;2023-05-24T15:07:55;10.77;;;3.35;;
22024;SDS011;11176;51.448;6.650;2023-05-24T15:10:22;7.13;;;2.65;;
22024;SDS011;11176;51.448;6.650;2023-05-24T15:12:48;7.78;;;3.08;;